Time;durP1;ratioP1;P1;durP2;ratioP2;P2;SDS_P1;SDS_P2;PMS_P1;PMS_P2;Temp;Humidity;BMP_temperature;BMP_pressure;BME280_temperature;BME280_humidity;BME280_pressure;Samples;Min_cycle;Max_cycle;Signal;HPM_P1;HPM_P2
2023/05/17 00:03:22;;;;;;;3.53;1.48;;;;;;;12.48;53.31;100705.94;10249523;28;20047;-67
2023/05/17 00:08:24;;;;;;;3.58;1.35;;;;;;;12.38;53.29;100709.34;10234097;28;20059;-66
2023/05/17 00:13:25;;;;;;;4.63;1.85;;;;;;;12.34;53.70;100697.22;10230888;28;20095;-66
2023/05/17 00:18:27;;;;;;;3.15;1.35;;;;;;;12.23;53.50;100675.88;10247608;28;20549;-66
2023/05/17 00:23:28;;;;;;;4.20;1.40;;;;;;;12.43;53.64;100718.78;10230339;28;20058;-64
2023/05/17 00:28:29;;;;;;;5.53;2.25;;;;;;;12.38;53.80;100727.16;10246717;28;20081;-66
2023/05/17 00:33:31;;;;;;;3.30;1.58;;;;;;;12.37;53.91;100730.84;10240641;28;20054;-65
2023/05/17 00:38:32;;;;;;;4.45;1.52;;;;;;;12.30;54.18;100730.47;10244082;28;20130;-64
2023/05/17 00:43:34;;;;;;;3.95;2.05;;;;;;;11.98;54.85;100741.00;10229091;28;20622;-66
2023/05/17 00:48:35;;;;;;;4.43;2.10;;;;;;;12.01;54.92;100730.97;10241409;28;20058;-65
2023/05/17 00:53:37;;;;;;;3.53;2.40;;;;;;;12.09;55.23;100732.19;10244011;28;20134;-65
2023/05/17 00:58:39;;;;;;;5.00;2.03;;;;;;;11.99;55.27;100716.91;10253931;28;20404;-65
2023/05/17 01:03:41;;;;;;;3.67;2.20;;;;;;;11.97;55.29;100718.81;10224690;28;20056;-66
2023/05/17 01:08:43;;;;;;;4.40;2.05;;;;;;;11.92;55.51;100723.66;10235932;28;20062;-64
2023/05/17 01:14:01;;;;;;;4.65;1.92;;;;;;;11.90;55.67;100730.91;10236824;28;20051;-67
2023/05/17 01:19:25;;;;;;;4.53;2.08;;;;;;;11.94;56.52;100750.25;10235391;28;20414;-66
2023/05/17 01:24:53;;;;;;;3.10;1.92;;;;;;;11.90;56.79;100744.25;10241553;28;20715;-67
2023/05/17 01:29:55;;;;;;;4.45;2.15;;;;;;;11.87;56.40;100741.00;10217314;28;20054;-66
2023/05/17 01:34:56;;;;;;;5.85;2.50;;;;;;;11.71;56.32;100734.19;10247951;28;20129;-69
2023/05/17 01:39:58;;;;;;;3.17;2.17;;;;;;;11.65;56.76;100737.34;10235361;28;20467;-68
2023/05/17 01:45:21;;;;;;;4.75;1.85;;;;;;;11.71;57.63;100755.53;10241677;28;20043;-67
2023/05/17 01:50:25;;;;;;;4.40;2.33;;;;;;;11.60;57.27;100756.31;10237302;28;20136;-65
2023/05/17 01:55:30;;;;;;;;;;;;;;;11.55;57.66;100761.19;10236013;28;20211;-66
2023/05/17 02:00:32;;;;;;;3.30;2.13;;;;;;;11.55;57.51;100757.69;10231500;28;19993;-64
2023/05/17 02:05:33;;;;;;;4.57;2.30;;;;;;;11.57;57.29;100764.56;10222822;28;20584;-65
2023/05/17 02:10:35;;;;;;;3.42;1.88;;;;;;;11.48;57.56;100755.47;10235803;28;20065;-65
2023/05/17 02:15:36;;;;;;;5.32;2.65;;;;;;;11.50;58.28;100766.88;10233842;28;20670;-65
2023/05/17 02:20:38;;;;;;;4.45;2.03;;;;;;;11.47;58.24;100768.94;10232579;28;20054;-65
2023/05/17 02:25:39;;;;;;;3.97;2.42;;;;;;;11.48;57.89;100773.28;10225242;28;20043;-65
2023/05/17 02:30:41;;;;;;;4.40;1.98;;;;;;;11.34;57.83;100758.34;10228798;28;20070;-65
2023/05/17 02:35:42;;;;;;;4.30;2.38;;;;;;;11.39;57.87;100777.47;10233505;28;20070;-67
2023/05/17 02:40:43;;;;;;;5.45;2.58;;;;;;;11.24;58.19;100758.16;10232459;28;20129;-64
2023/05/17 02:45:45;;;;;;;3.85;2.28;;;;;;;11.23;58.06;100764.47;10216679;28;20055;-67
2023/05/17 02:50:47;;;;;;;6.65;2.55;;;;;;;11.31;58.22;100791.38;10236441;28;20126;-66
2023/05/17 02:55:48;;;;;;;4.78;2.40;;;;;;;11.22;58.33;100772.59;10232522;28;20764;-67
2023/05/17 03:00:50;;;;;;;4.15;2.40;;;;;;;11.19;58.94;100794.97;10233222;28;20055;-66
2023/05/17 03:05:51;;;;;;;5.45;2.42;;;;;;;11.18;58.87;100789.75;10232269;28;20114;-65
2023/05/17 03:10:53;;;;;;;7.35;3.00;;;;;;;11.15;59.37;100796.16;10237322;28;20414;-65
2023/05/17 03:15:54;;;;;;;4.32;2.33;;;;;;;10.98;59.81;100796.56;10236531;28;20134;-66
2023/05/17 03:20:56;;;;;;;4.25;2.58;;;;;;;11.07;59.36;100801.22;10221203;28;20050;-68
2023/05/17 03:25:57;;;;;;;5.97;2.55;;;;;;;11.15;59.11;100814.81;10228806;28;20516;-67
2023/05/17 03:30:59;;;;;;;6.57;2.38;;;;;;;11.09;59.85;100800.16;10231970;28;20122;-68
2023/05/17 03:36:00;;;;;;;5.38;2.22;;;;;;;11.09;59.60;100807.28;10234856;28;20168;-66
2023/05/17 03:41:02;;;;;;;3.78;2.30;;;;;;;11.04;59.97;100806.78;10231263;28;20722;-66
2023/05/17 03:46:04;;;;;;;3.15;2.30;;;;;;;11.06;60.41;100803.00;10237964;28;20042;-67
2023/05/17 03:51:06;;;;;;;7.03;3.20;;;;;;;11.06;59.89;100808.34;10212039;28;20056;-68
2023/05/17 03:56:08;;;;;;;4.63;2.47;;;;;;;11.08;59.87;100811.75;10232798;28;20204;-67
2023/05/17 04:01:10;;;;;;;6.65;2.85;;;;;;;11.06;60.02;100815.50;10233247;28;20059;-68
2023/05/17 04:06:13;;;;;;;5.40;2.58;;;;;;;11.06;60.02;100818.16;10234461;28;20510;-68
2023/05/17 04:11:15;;;;;;;4.38;2.78;;;;;;;11.03;60.23;100815.72;10234681;28;20062;-67
2023/05/17 04:16:16;;;;;;;5.88;3.72;;;;;;;11.09;59.99;100829.47;10234626;28;20051;-68
2023/05/17 04:21:18;;;;;;;5.47;2.80;;;;;;;11.08;60.20;100832.22;10233814;28;20145;-67
2023/05/17 04:26:19;;;;;;;3.90;2.78;;;;;;;10.98;60.09;100818.72;10234963;28;20065;-66
2023/05/17 04:31:21;;;;;;;6.22;2.80;;;;;;;11.14;60.34;100842.44;10219518;28;20051;-66
2023/05/17 04:36:22;;;;;;;4.75;2.85;;;;;;;11.18;60.67;100843.91;10220700;28;20457;-66
2023/05/17 04:41:23;;;;;;;6.65;2.67;;;;;;;11.08;60.59;100829.53;10236902;28;20087;-66
2023/05/17 04:46:25;;;;;;;4.68;2.42;;;;;;;11.20;60.26;100857.97;10243120;28;20062;-68
2023/05/17 04:51:28;;;;;;;5.10;3.15;;;;;;;11.16;60.63;100856.50;10262600;28;20051;-70
2023/05/17 04:56:30;;;;;;;4.95;2.35;;;;;;;11.23;59.66;100863.06;10245287;28;20083;-67
2023/05/17 05:01:34;;;;;;;4.25;2.40;;;;;;;11.19;60.06;100861.59;10204053;28;20061;-67
2023/05/17 05:06:35;;;;;;;4.10;2.25;;;;;;;11.31;59.19;100876.66;10230702;28;20066;-66
2023/05/17 05:11:37;;;;;;;5.00;2.75;;;;;;;11.28;59.86;100863.56;10217097;28;20074;-68
2023/05/17 05:16:38;;;;;;;6.68;2.35;;;;;;;11.40;59.37;100874.31;10230374;28;20149;-70
2023/05/17 05:21:39;;;;;;;5.20;2.75;;;;;;;11.40;59.84;100893.81;10238685;28;20538;-68
2023/05/17 05:26:41;;;;;;;4.38;2.50;;;;;;;11.53;59.23;100893.75;10230363;28;20075;-69
2023/05/17 05:31:43;;;;;;;4.10;2.17;;;;;;;11.50;59.78;100910.81;10240088;28;20481;-66
2023/05/17 05:36:45;;;;;;;3.20;2.20;;;;;;;11.54;59.14;100902.59;10235962;28;20046;-63
2023/05/17 05:41:50;;;;;;;6.40;2.97;;;;;;;11.69;58.83;100914.78;10212880;28;20051;-69
2023/05/17 05:46:52;;;;;;;4.38;2.80;;;;;;;11.69;58.87;100925.44;10237146;28;20514;-67
2023/05/17 05:51:53;;;;;;;6.72;2.83;;;;;;;11.78;58.76;100910.59;10237254;28;20058;-67
2023/05/17 05:56:55;;;;;;;5.75;2.40;;;;;;;11.79;59.18;100914.97;10223852;28;20665;-66
2023/05/17 06:01:57;;;;;;;6.38;2.95;;;;;;;12.07;58.67;100939.56;10215476;28;20059;-65
2023/05/17 06:06:58;;;;;;;5.65;2.97;;;;;;;12.08;58.63;100922.59;10226921;28;20066;-67
2023/05/17 06:12:00;;;;;;;6.68;2.30;;;;;;;12.22;57.91;100930.41;10228135;28;20188;-64
2023/05/17 06:17:01;;;;;;;5.82;3.05;;;;;;;12.27;58.30;100944.25;10247203;28;20248;-64
2023/05/17 06:22:03;;;;;;;7.38;3.30;;;;;;;12.36;58.18;100943.53;10230536;28;20050;-65
2023/05/17 06:27:06;;;;;;;8.40;3.17;;;;;;;12.38;58.79;100944.28;10231839;28;20086;-65
2023/05/17 06:32:07;;;;;;;5.28;3.45;;;;;;;12.33;58.62;100950.94;10231016;28;20058;-65
2023/05/17 06:37:09;;;;;;;6.60;3.13;;;;;;;12.33;58.33;100951.78;10228559;28;20073;-63
2023/05/17 06:42:10;;;;;;;5.32;2.67;;;;;;;12.23;58.08;100953.44;10228615;28;20146;-64
2023/05/17 06:47:12;;;;;;;4.50;2.70;;;;;;;12.71;57.85;100979.16;10208195;28;20152;-65
2023/05/17 06:52:13;;;;;;;8.25;3.00;;;;;;;12.65;57.69;100975.13;10208601;28;20051;-65
2023/05/17 06:57:15;;;;;;;6.10;2.60;;;;;;;12.84;56.91;100963.03;10208656;28;20506;-64
2023/05/17 07:02:17;;;;;;;7.35;2.72;;;;;;;13.04;56.65;100954.25;10225903;28;20134;-65
2023/05/17 07:07:18;;;;;;;5.30;2.70;;;;;;;13.06;55.18;100963.03;10225540;28;20057;-64
2023/05/17 07:12:20;;;;;;;6.45;2.50;;;;;;;13.12;56.04;100983.06;10221025;28;20486;-64
2023/05/17 07:17:21;;;;;;;3.55;2.20;;;;;;;13.32;55.23;100983.31;10225937;28;20126;-63
2023/05/17 07:22:23;;;;;;;4.28;2.40;;;;;;;13.25;54.56;100973.06;10225465;28;20046;-63
2023/05/17 07:27:24;;;;;;;5.18;2.75;;;;;;;13.26;55.54;100981.97;10223746;28;20489;-63
2023/05/17 07:32:26;;;;;;;6.25;2.55;;;;;;;13.60;54.64;100984.59;10224400;28;20050;-65
2023/05/17 07:37:27;;;;;;;6.88;2.65;;;;;;;13.82;53.86;100982.84;10223286;28;20054;-66
2023/05/17 07:42:29;;;;;;;3.60;2.25;;;;;;;13.98;52.11;100956.50;10221756;28;20119;-65
2023/05/17 07:47:30;;;;;;;6.20;2.90;;;;;;;14.22;52.50;100966.13;10223028;28;20083;-65
2023/05/17 07:52:32;;;;;;;4.80;2.05;;;;;;;13.85;50.07;100966.53;10202549;28;20518;-65
2023/05/17 07:57:33;;;;;;;5.00;1.80;;;;;;;13.79;50.32;100982.09;10224464;28;20059;-64
2023/05/17 08:02:35;;;;;;;3.75;2.35;;;;;;;13.59;51.55;100980.25;10203179;28;20192;-64
2023/05/17 08:07:36;;;;;;;3.42;1.90;;;;;;;13.64;51.98;100990.56;10223840;28;20055;-64
2023/05/17 08:12:37;;;;;;;5.25;2.40;;;;;;;13.82;51.93;100996.22;10220487;28;20517;-64
2023/05/17 08:17:39;;;;;;;4.97;2.42;;;;;;;13.95;51.86;100988.88;10228965;28;20062;-65
2023/05/17 08:22:40;;;;;;;5.78;2.22;;;;;;;13.92;51.78;100989.13;10244575;28;20050;-65
2023/05/17 08:27:42;;;;;;;5.25;2.35;;;;;;;13.91;52.13;100995.47;10226076;28;20059;-66
2023/05/17 08:32:44;;;;;;;5.00;2.30;;;;;;;13.92;52.69;100973.09;10217121;28;20182;-65
2023/05/17 08:37:45;;;;;;;6.82;2.50;;;;;;;13.96;52.34;100964.66;10227074;28;20517;-64
2023/05/17 08:42:49;;;;;;;4.97;2.22;;;;;;;14.55;51.34;100970.44;10225093;28;20059;-64
2023/05/17 08:47:53;;;;;;;4.97;2.00;;;;;;;15.01;49.64;100966.47;10229694;28;20165;-64
2023/05/17 08:52:55;;;;;;;6.93;2.20;;;;;;;15.18;48.42;100975.69;10229353;28;20364;-65
2023/05/17 08:57:57;;;;;;;5.03;3.20;;;;;;;15.11;45.86;100968.34;10214137;28;20057;-64
2023/05/17 09:02:59;;;;;;;5.82;2.28;;;;;;;15.03;43.46;100982.41;10228117;28;20054;-65
2023/05/17 09:08:01;;;;;;;3.53;2.80;;;;;;;15.01;43.07;100973.63;10230871;28;20626;-66
2023/05/17 09:13:03;;;;;;;5.43;1.75;;;;;;;15.00;45.59;100969.28;10224127;28;20078;-65
2023/05/17 09:18:04;;;;;;;6.93;1.95;;;;;;;15.07;44.93;100978.47;10229201;28;20058;-64
2023/05/17 09:23:09;;;;;;;5.90;1.90;;;;;;;15.03;45.49;100987.78;10230054;28;20447;-65
2023/05/17 09:28:11;;;;;;;;;;;;;;;15.01;44.27;100984.38;10228430;28;20055;-65
2023/05/17 09:33:12;;;;;;;5.40;2.30;;;;;;;14.97;45.09;100988.31;10240726;28;19961;-65
2023/05/17 09:38:24;;;;;;;3.95;1.90;;;;;;;14.95;44.91;100979.53;10226666;28;20133;-64
2023/05/17 09:43:26;;;;;;;4.13;2.80;;;;;;;15.67;44.60;100966.91;10213104;28;20063;-64
2023/05/17 09:48:28;;;;;;;4.28;2.22;;;;;;;16.20;41.79;100976.44;10226988;28;20122;-65
2023/05/17 09:53:38;;;;;;;5.32;1.90;;;;;;;16.35;40.97;100982.19;10223591;28;20093;-64
2023/05/17 09:58:41;;;;;;;3.42;1.83;;;;;;;16.28;40.38;100970.34;10210471;28;20662;-66
2023/05/17 10:03:43;;;;;;;5.75;2.00;;;;;;;16.18;41.19;100954.22;10227083;28;20050;-64
2023/05/17 10:08:48;;;;;;;3.67;2.10;;;;;;;16.33;42.05;100970.75;10226175;28;20061;-65
2023/05/17 10:14:17;;;;;;;7.07;2.30;;;;;;;16.36;42.07;100975.84;10205877;28;20062;-66
2023/05/17 10:19:20;;;;;;;4.97;2.55;;;;;;;16.33;42.59;100965.38;10208743;28;20198;-65
2023/05/17 10:24:22;;;;;;;7.72;2.80;;;;;;;16.82;42.61;100960.72;10204825;28;20050;-65
2023/05/17 10:29:24;;;;;;;5.15;2.78;;;;;;;17.01;41.02;100962.53;10235134;28;20058;-65
2023/05/17 10:34:28;;;;;;;4.88;2.55;;;;;;;17.46;40.33;100942.06;10242927;28;20120;-65
2023/05/17 10:39:33;;;;;;;4.10;2.00;;;;;;;17.67;40.91;100950.66;10221326;28;20054;-63
2023/05/17 10:44:36;;;;;;;7.25;2.78;;;;;;;16.93;41.67;100957.91;10210817;28;20765;-64
2023/05/17 10:49:46;;;;;;;3.73;1.83;;;;;;;16.71;40.65;100942.94;10202119;28;20090;-64
2023/05/17 10:54:51;;;;;;;3.60;1.98;;;;;;;16.84;41.38;100947.13;10239462;28;20047;-67
2023/05/17 11:00:00;;;;;;;3.55;1.60;;;;;;;16.98;41.38;100944.00;10236295;28;20056;-66
2023/05/17 11:05:02;;;;;;;4.18;2.28;;;;;;;17.17;39.18;100953.81;10199816;28;20129;-66
2023/05/17 11:10:10;;;;;;;3.13;1.27;;;;;;;16.87;41.31;100949.56;10222682;28;20511;-64
2023/05/17 11:15:13;;;;;;;5.13;2.05;;;;;;;16.80;41.27;100946.59;10224307;28;20104;-64
2023/05/17 11:20:25;;;;;;;4.88;1.67;;;;;;;17.28;40.28;100934.78;10222826;28;20055;-65
2023/05/17 11:25:29;;;;;;;3.38;1.90;;;;;;;17.82;38.88;100928.59;10241783;28;20064;-65
2023/05/17 11:30:31;;;;;;;5.65;1.92;;;;;;;18.17;38.90;100929.59;10218540;28;20169;-67
2023/05/17 11:35:38;;;;;;;4.10;1.30;;;;;;;18.47;37.95;100935.53;10220938;28;20676;-68
2023/05/17 11:40:40;;;;;;;3.83;1.85;;;;;;;19.11;36.63;100941.47;10226371;28;20562;-66
2023/05/17 11:45:49;;;;;;;3.35;1.27;;;;;;;19.32;35.52;100938.31;10225937;28;20062;-64
2023/05/17 11:50:55;;;;;;;2.55;1.35;;;;;;;18.88;36.07;100943.88;10221800;28;20042;-65
2023/05/17 11:56:02;;;;;;;4.18;2.00;;;;;;;18.66;35.60;100940.72;10195546;28;20055;-66
2023/05/17 12:01:04;;;;;;;3.15;1.25;;;;;;;18.95;35.72;100952.19;10209805;28;20063;-66
2023/05/17 12:06:08;;;;;;;3.75;1.00;;;;;;;18.94;34.85;100937.81;10224302;28;20051;-67
2023/05/17 12:11:10;;;;;;;;;;;;;;;19.02;35.91;100939.72;10213132;28;20058;-66
2023/05/17 12:16:13;;;;;;;3.22;1.35;;;;;;;19.30;34.83;100931.41;10204999;28;20079;-67
2023/05/17 12:21:20;;;;;;;2.78;1.10;;;;;;;19.43;34.62;100927.22;10228586;28;20135;-67
2023/05/17 12:26:22;;;;;;;3.85;1.00;;;;;;;19.57;34.94;100932.97;10230145;28;20468;-65
2023/05/17 12:31:31;;;;;;;3.28;1.08;;;;;;;19.93;31.84;100930.00;10196165;28;20047;-67
2023/05/17 12:36:36;;;;;;;3.25;1.23;;;;;;;19.97;33.14;100925.97;10230572;28;20054;-66
2023/05/17 12:41:38;;;;;;;3.23;1.13;;;;;;;19.80;31.25;100910.75;10204177;28;20054;-66
2023/05/17 12:46:40;;;;;;;2.08;1.20;;;;;;;19.83;32.70;100911.28;10219741;28;20085;-66
2023/05/17 12:51:43;;;;;;;2.67;1.40;;;;;;;20.02;32.46;100920.06;10233702;28;20067;-65
2023/05/17 12:56:45;;;;;;;4.07;1.48;;;;;;;19.91;32.76;100919.38;10197561;28;20062;-67
2023/05/17 13:01:49;;;;;;;4.97;2.17;;;;;;;19.81;32.79;100902.47;10227711;28;20050;-65
2023/05/17 13:06:52;;;;;;;;;;;;;;;19.90;31.52;100917.66;10232796;28;20285;-69
2023/05/17 13:11:56;;;;;;;6.22;1.30;;;;;;;19.70;32.75;100898.22;10248537;28;19929;-71
2023/05/17 13:16:57;;;;;;;4.07;1.65;;;;;;;19.63;32.71;100902.59;10238016;28;20385;-69
2023/05/17 13:21:58;;;;;;;5.88;1.73;;;;;;;19.39;32.33;100898.84;10228949;28;20710;-69
2023/05/17 13:27:01;;;;;;;6.03;2.20;;;;;;;18.98;33.87;100890.66;10246148;28;20538;-68
2023/05/17 13:32:02;;;;;;;3.88;1.73;;;;;;;19.18;32.67;100901.16;10229528;28;20055;-70
2023/05/17 13:37:05;;;;;;;6.47;1.90;;;;;;;19.13;33.28;100898.13;10227334;28;20073;-71
2023/05/17 13:42:11;;;;;;;5.18;1.90;;;;;;;19.10;32.90;100899.28;10212697;28;20051;-70
2023/05/17 13:47:13;;;;;;;3.97;1.48;;;;;;;19.11;33.05;100878.53;10230878;28;20050;-70
2023/05/17 13:52:17;;;;;;;6.57;1.92;;;;;;;18.93;33.69;100871.41;10230459;28;20066;-69
2023/05/17 13:57:18;;;;;;;6.22;1.65;;;;;;;19.02;33.06;100861.47;10209691;28;20153;-68
2023/05/17 14:02:20;;;;;;;8.40;2.20;;;;;;;18.89;33.78;100873.59;10229151;28;20058;-68
2023/05/17 14:07:22;;;;;;;4.10;1.40;;;;;;;18.90;33.48;100861.78;10228957;28;20055;-69
2023/05/17 14:12:23;;;;;;;5.15;1.27;;;;;;;18.73;32.70;100860.88;10208748;28;20054;-68
2023/05/17 14:17:25;;;;;;;7.57;2.28;;;;;;;18.70;33.60;100854.94;10225477;28;20395;-70
2023/05/17 14:22:27;;;;;;;5.05;2.05;;;;;;;18.65;33.07;100851.88;10212760;28;20051;-68
2023/05/17 14:27:28;;;;;;;6.38;1.70;;;;;;;18.81;34.00;100865.44;10213581;28;20146;-69
2023/05/17 14:32:30;;;;;;;5.28;1.70;;;;;;;18.62;33.54;100869.22;10236720;28;20055;-67
2023/05/17 14:37:32;;;;;;;3.83;1.30;;;;;;;18.33;34.36;100832.69;10224295;28;20671;-65
2023/05/17 14:42:33;;;;;;;5.97;1.90;;;;;;;18.59;34.54;100869.56;10224696;28;20138;-67
2023/05/17 14:47:35;;;;;;;3.58;1.85;;;;;;;18.25;34.68;100846.09;10219157;28;20059;-65
2023/05/17 14:52:37;;;;;;;3.40;1.48;;;;;;;18.29;34.48;100858.25;10211257;28;20160;-67
2023/05/17 14:57:39;;;;;;;4.25;1.67;;;;;;;18.38;34.39;100860.00;10200361;28;20873;-68
2023/05/17 15:02:40;;;;;;;3.63;1.42;;;;;;;18.42;33.95;100851.59;10207915;28;20142;-68
2023/05/17 15:07:42;;;;;;;5.55;2.10;;;;;;;18.35;33.46;100854.94;10210180;28;20249;-68
2023/05/17 15:12:43;;;;;;;4.72;1.75;;;;;;;18.12;34.81;100841.16;10207639;28;20062;-68
2023/05/17 15:17:45;;;;;;;7.45;1.67;;;;;;;17.90;34.24;100842.53;10223900;28;20145;-69
2023/05/17 15:22:47;;;;;;;7.47;1.50;;;;;;;18.07;34.50;100854.25;10207453;28;20055;-67
2023/05/17 15:27:48;;;;;;;4.20;1.60;;;;;;;18.05;34.39;100847.34;10221054;28;20062;-70
2023/05/17 15:32:50;;;;;;;4.80;1.30;;;;;;;17.96;34.71;100852.66;10217889;28;20144;-70
2023/05/17 15:37:55;;;;;;;3.92;1.77;;;;;;;18.14;34.39;100860.69;10203651;28;20062;-69
2023/05/17 15:42:56;;;;;;;4.88;1.75;;;;;;;18.04;34.13;100849.19;10216526;28;20050;-70
2023/05/17 15:48:00;;;;;;;7.35;2.25;;;;;;;18.11;34.87;100855.63;10222979;28;20063;-69
2023/05/17 15:53:02;;;;;;;;;;;;;;;18.04;33.88;100853.72;10246902;28;20065;-69
2023/05/17 15:58:06;;;;;;;4.45;2.53;;;;;;;17.89;34.82;100840.81;10216468;28;20384;-67
2023/05/17 16:03:08;;;;;;;4.35;1.65;;;;;;;17.89;34.68;100859.66;10213823;28;20085;-69
2023/05/17 16:08:11;;;;;;;4.97;1.80;;;;;;;17.95;34.85;100856.34;10220144;28;20158;-68
2023/05/17 16:13:12;;;;;;;6.37;1.57;;;;;;;17.94;34.18;100857.38;10205025;28;20702;-68
2023/05/17 16:18:14;;;;;;;4.53;1.95;;;;;;;17.80;33.84;100868.66;10201938;28;20146;-68
2023/05/17 16:23:16;;;;;;;2.42;1.25;;;;;;;17.71;34.72;100856.13;10214249;28;20157;-68
2023/05/17 16:28:20;;;;;;;5.43;1.60;;;;;;;17.63;33.82;100846.97;10217278;28;20050;-67
2023/05/17 16:33:21;;;;;;;4.57;1.40;;;;;;;17.60;34.03;100863.44;10234663;28;20738;-69
2023/05/17 16:38:24;;;;;;;4.07;1.85;;;;;;;17.74;34.06;100866.59;10224481;28;20058;-69
2023/05/17 16:43:25;;;;;;;4.88;1.60;;;;;;;17.54;34.03;100858.69;10223756;28;20054;-70
2023/05/17 16:48:27;;;;;;;3.88;1.95;;;;;;;17.64;33.76;100859.44;10212318;28;20256;-69
2023/05/17 16:53:28;;;;;;;2.75;1.33;;;;;;;17.66;34.23;100868.22;10229229;28;20192;-69
2023/05/17 16:58:30;;;;;;;5.22;1.45;;;;;;;17.55;34.79;100855.00;10221797;28;20492;-69
2023/05/17 17:03:31;;;;;;;3.63;1.92;;;;;;;17.53;34.01;100865.06;10228416;28;20051;-69
2023/05/17 17:08:33;;;;;;;4.05;1.80;;;;;;;17.44;34.74;100863.28;10214636;28;20138;-70
2023/05/17 17:13:36;;;;;;;5.32;1.40;;;;;;;17.46;35.02;100862.16;10222680;28;20074;-70
2023/05/17 17:18:38;;;;;;;5.43;1.90;;;;;;;17.40;35.37;100867.28;10219018;28;20817;-69
2023/05/17 17:23:40;;;;;;;3.67;2.15;;;;;;;17.24;35.13;100878.75;10224091;28;20054;-69
2023/05/17 17:28:41;;;;;;;5.18;1.33;;;;;;;17.31;34.99;100891.44;10213650;28;20052;-66
2023/05/17 17:33:43;;;;;;;5.60;1.83;;;;;;;17.30;34.96;100889.72;10208717;28;20926;-66
2023/05/17 17:38:44;;;;;;;2.60;1.27;;;;;;;17.21;35.55;100890.66;10213591;28;20051;-67
2023/05/17 17:43:48;;;;;;;4.82;1.65;;;;;;;17.08;37.99;100879.41;10204203;28;20545;-68
2023/05/17 17:48:49;;;;;;;6.10;2.03;;;;;;;17.06;36.40;100893.00;10200046;28;20066;-69
2023/05/17 17:53:52;;;;;;;5.25;2.50;;;;;;;17.04;37.44;100888.75;10227373;28;20055;-68
2023/05/17 17:58:54;;;;;;;3.67;1.60;;;;;;;17.11;37.81;100906.84;10230755;28;20055;-68
2023/05/17 18:03:56;;;;;;;4.80;1.85;;;;;;;17.03;37.96;100887.09;10224400;28;20074;-68
2023/05/17 18:08:58;;;;;;;4.78;1.77;;;;;;;16.93;37.69;100914.88;10213202;28;20102;-67
2023/05/17 18:14:06;;;;;;;3.55;1.40;;;;;;;16.76;38.03;100896.81;10223037;28;20133;-69
2023/05/17 18:19:08;;;;;;;4.20;1.77;;;;;;;16.79;38.14;100920.69;10225732;28;20070;-69
2023/05/17 18:24:09;;;;;;;5.32;1.88;;;;;;;16.59;38.32;100911.88;10202948;28;20222;-69
2023/05/17 18:29:11;;;;;;;5.22;2.17;;;;;;;16.63;39.28;100923.16;10221046;28;20417;-70
2023/05/17 18:34:12;;;;;;;4.72;1.80;;;;;;;16.43;39.03;100931.28;10219940;28;20575;-70
2023/05/17 18:39:14;;;;;;;3.30;1.77;;;;;;;16.35;39.29;100925.78;10227725;28;20061;-68
2023/05/17 18:44:16;;;;;;;6.97;1.90;;;;;;;16.06;39.33;100915.94;10217690;28;20055;-67
2023/05/17 18:49:20;;;;;;;7.57;1.35;;;;;;;15.94;39.57;100917.91;10212246;28;20054;-68
2023/05/17 18:54:22;;;;;;;4.30;1.65;;;;;;;16.00;39.67;100941.53;10216344;28;20058;-70
2023/05/17 18:59:23;;;;;;;5.10;1.35;;;;;;;15.89;39.38;100944.34;10214391;28;20114;-68
2023/05/17 19:04:24;;;;;;;4.43;1.30;;;;;;;15.81;40.19;100945.06;10225909;28;20089;-68
2023/05/17 19:09:26;;;;;;;6.38;2.17;;;;;;;15.71;39.60;100945.00;10220645;28;20591;-68
2023/05/17 19:14:28;;;;;;;4.88;1.40;;;;;;;15.72;39.42;100956.63;10201650;28;20437;-68
2023/05/17 19:19:30;;;;;;;4.90;1.30;;;;;;;15.61;39.25;100964.78;10202528;28;20414;-69
2023/05/17 19:24:31;;;;;;;5.13;1.73;;;;;;;15.40;39.96;100957.66;10225258;28;20122;-68
2023/05/17 19:29:32;;;;;;;6.30;1.30;;;;;;;15.33;40.06;100972.66;10202866;28;20065;-69
2023/05/17 19:34:34;;;;;;;3.80;1.33;;;;;;;15.29;40.21;100976.56;10214626;28;20199;-69
2023/05/17 19:39:36;;;;;;;4.03;1.58;;;;;;;15.15;40.17;100970.59;10217495;28;20051;-70
2023/05/17 19:44:37;;;;;;;8.20;1.65;;;;;;;15.03;40.58;100987.78;10208312;28;20138;-68
2023/05/17 19:49:39;;;;;;;6.80;1.55;;;;;;;15.00;40.70;100999.63;10220648;28;20047;-68
2023/05/17 19:54:40;;;;;;;5.55;2.25;;;;;;;14.81;40.72;100984.28;10206891;28;20160;-68
2023/05/17 19:59:42;;;;;;;3.63;1.80;;;;;;;14.90;40.89;101003.22;10219961;28;20841;-68
2023/05/17 20:04:44;;;;;;;5.57;1.52;;;;;;;14.70;40.90;101003.13;10232685;28;20533;-68
2023/05/17 20:09:45;;;;;;;3.88;1.20;;;;;;;14.64;41.34;101003.66;10218246;28;20054;-69
2023/05/17 20:14:47;;;;;;;3.42;1.90;;;;;;;14.53;40.82;100995.66;10225945;28;20055;-68
2023/05/17 20:19:49;;;;;;;6.05;1.58;;;;;;;14.55;40.95;101012.47;10226935;28;20057;-68
2023/05/17 20:24:51;;;;;;;5.28;1.92;;;;;;;14.32;40.78;101010.75;10228566;28;20069;-68
2023/05/17 20:29:52;;;;;;;5.07;2.05;;;;;;;14.31;40.80;101008.19;10235275;28;20055;-68
2023/05/17 20:34:54;;;;;;;7.55;2.08;;;;;;;14.38;40.95;101024.59;10219677;28;20157;-68
2023/05/17 20:39:58;;;;;;;5.43;1.88;;;;;;;14.33;40.96;101022.28;10220345;28;20047;-67
2023/05/17 20:45:00;;;;;;;3.97;1.58;;;;;;;14.00;41.75;101016.09;10211426;28;20042;-68
2023/05/17 20:50:03;;;;;;;5.32;1.92;;;;;;;14.09;41.26;101004.63;10229613;28;20046;-66
2023/05/17 20:55:06;;;;;;;6.07;2.08;;;;;;;13.97;42.03;101009.16;10218264;28;20065;-68
2023/05/17 21:00:11;;;;;;;6.53;2.28;;;;;;;13.79;42.70;101014.22;10207010;28;20062;-68
2023/05/17 21:05:15;;;;;;;4.07;2.03;;;;;;;13.76;42.76;101013.63;10212116;28;20502;-68
2023/05/17 21:10:17;;;;;;;5.10;1.77;;;;;;;13.75;42.43;101017.28;10243176;28;20054;-68
2023/05/17 21:15:19;;;;;;;7.38;1.73;;;;;;;13.74;43.08;101032.47;10196701;28;20138;-71
2023/05/17 21:20:20;;;;;;;8.00;2.38;;;;;;;13.58;43.37;101026.69;10228921;28;20137;-65
2023/05/17 21:25:25;;;;;;;8.05;2.50;;;;;;;13.64;44.16;101042.22;10235436;28;20064;-67
2023/05/17 21:30:26;;;;;;;4.97;2.67;;;;;;;13.63;44.00;101035.19;10232853;28;20106;-68
2023/05/17 21:35:27;;;;;;;4.88;2.17;;;;;;;13.54;43.86;101033.25;10232968;28;20734;-66
2023/05/17 21:40:29;;;;;;;6.35;2.00;;;;;;;13.46;44.69;101022.31;10231693;28;20051;-67
2023/05/17 21:45:32;;;;;;;4.75;2.17;;;;;;;13.25;45.23;101015.00;10233387;28;20051;-66
2023/05/17 21:50:33;;;;;;;5.43;2.20;;;;;;;13.19;44.97;101002.97;10230883;28;20659;-66
2023/05/17 21:55:34;;;;;;;4.90;2.10;;;;;;;13.12;45.44;101041.00;10218345;28;20078;-66
2023/05/17 22:00:56;;;;;;;5.60;3.05;;;;;;;13.09;45.96;101037.63;10222516;28;20105;-65
2023/05/17 22:05:59;;;;;;;6.60;2.40;;;;;;;13.15;46.26;101046.13;10235885;28;20548;-65
2023/05/17 22:11:01;;;;;;;4.78;2.60;;;;;;;13.02;46.59;101033.72;10250750;28;20071;-65
2023/05/17 22:16:02;;;;;;;10.00;3.10;;;;;;;12.98;46.45;101040.28;10238441;28;20597;-65
2023/05/17 22:21:04;;;;;;;4.82;2.30;;;;;;;12.88;47.13;101037.47;10225906;28;20122;-66
2023/05/17 22:26:05;;;;;;;6.93;3.30;;;;;;;12.81;46.65;101028.22;10220173;28;20051;-66
2023/05/17 22:31:07;;;;;;;5.13;2.72;;;;;;;12.73;46.46;101026.16;10233903;28;20055;-66
2023/05/17 22:36:12;;;;;;;6.85;2.90;;;;;;;12.40;47.52;101023.41;10229579;28;20055;-67
2023/05/17 22:41:14;;;;;;;5.50;2.30;;;;;;;12.28;47.58;101026.03;10234241;28;20049;-68
2023/05/17 22:46:15;;;;;;;6.30;2.72;;;;;;;12.38;47.33;101037.72;10248358;28;20062;-67
2023/05/17 22:51:17;;;;;;;6.18;1.85;;;;;;;12.38;47.60;101026.19;10234131;28;20733;-67
2023/05/17 22:56:18;;;;;;;5.85;2.15;;;;;;;12.30;47.94;101040.13;10232930;28;20065;-67
2023/05/17 23:01:20;;;;;;;5.78;2.90;;;;;;;12.18;48.10;101047.22;10225056;28;20422;-67
2023/05/17 23:06:22;;;;;;;6.38;2.50;;;;;;;12.06;48.27;101047.31;10232355;28;20785;-67
2023/05/17 23:11:23;;;;;;;8.07;2.50;;;;;;;12.07;48.29;101041.84;10215536;28;20591;-68
2023/05/17 23:16:27;;;;;;;7.10;2.00;;;;;;;12.13;48.47;101054.72;10225631;28;20130;-68